sensor_id;sensor_type;location;lat;lon;timestamp;temperature;humidity
16732;DHT22;8484;50.904;9.192;2023-07-29T00:00:08;17.50;99.90
16732;DHT22;8484;50.904;9.192;2023-07-29T00:02:36;17.50;99.90
16732;DHT22;8484;50.904;9.192;2023-07-29T00:05:05;17.50;99.90
16732;DHT22;8484;50.904;9.192;2023-07-29T00:07:32;17.50;99.90
16732;DHT22;8484;50.904;9.192;2023-07-29T00:09:59;17.40;99.90
16732;DHT22;8484;50.904;9.192;2023-07-29T00:12:25;17.50;99.90
16732;DHT22;8484;50.904;9.192;2023-07-29T00:14:52;17.60;99.90
16732;DHT22;8484;50.904;9.192;2023-07-29T00:17:19;17.60;99.90
16732;DHT22;8484;50.904;9.192;2023-07-29T00:19:46;17.60;99.90
16732;DHT22;8484;50.904;9.192;2023-07-29T00:22:15;17.50;99.90
16732;DHT22;8484;50.904;9.192;2023-07-29T00:24:41;17.50;99.90
16732;DHT22;8484;50.904;9.192;2023-07-29T00:27:08;17.60;99.90
16732;DHT22;8484;50.904;9.192;2023-07-29T00:29:35;17.60;99.90
16732;DHT22;8484;50.904;9.192;2023-07-29T00:32:03;17.60;99.90
16732;DHT22;8484;50.904;9.192;2023-07-29T00:34:30;17.60;99.90
16732;DHT22;8484;50.904;9.192;2023-07-29T00:36:57;17.60;99.90
16732;DHT22;8484;50.904;9.192;2023-07-29T00:39:25;17.60;99.90
16732;DHT22;8484;50.904;9.192;2023-07-29T00:41:52;17.50;99.90
16732;DHT22;8484;50.904;9.192;2023-07-29T00:44:19;17.40;99.90
16732;DHT22;8484;50.904;9.192;2023-07-29T00:46:46;17.40;99.90
16732;DHT22;8484;50.904;9.192;2023-07-29T00:49:14;17.40;99.90
16732;DHT22;8484;50.904;9.192;2023-07-29T00:51:41;17.40;99.90
16732;DHT22;8484;50.904;9.192;2023-07-29T00:54:08;17.30;99.90
16732;DHT22;8484;50.904;9.192;2023-07-29T00:56:36;17.40;99.90
16732;DHT22;8484;50.904;9.192;2023-07-29T00:59:03;17.30;99.90
16732;DHT22;8484;50.904;9.192;2023-07-29T01:01:30;17.40;99.90
16732;DHT22;8484;50.904;9.192;2023-07-29T01:03:58;17.40;99.90
16732;DHT22;8484;50.904;9.192;2023-07-29T01:06:33;17.50;99.90
16732;DHT22;8484;50.904;9.192;2023-07-29T01:09:04;17.50;99.90
16732;DHT22;8484;50.904;9.192;2023-07-29T01:11:41;17.50;99.90
16732;DHT22;8484;50.904;9.192;2023-07-29T01:14:19;17.70;99.90
16732;DHT22;8484;50.904;9.192;2023-07-29T01:16:52;17.80;99.90
16732;DHT22;8484;50.904;9.192;2023-07-29T01:19:39;17.80;99.90
16732;DHT22;8484;50.904;9.192;2023-07-29T01:22:10;17.90;99.90
16732;DHT22;8484;50.904;9.192;2023-07-29T01:24:38;18.00;99.90
16732;DHT22;8484;50.904;9.192;2023-07-29T01:27:06;17.90;99.90
16732;DHT22;8484;50.904;9.192;2023-07-29T01:29:33;18.00;99.90
16732;DHT22;8484;50.904;9.192;2023-07-29T01:32:06;17.90;99.90
16732;DHT22;8484;50.904;9.192;2023-07-29T01:34:41;18.00;99.90
16732;DHT22;8484;50.904;9.192;2023-07-29T01:37:16;18.00;99.90
16732;DHT22;8484;50.904;9.192;2023-07-29T01:39:49;18.00;99.90
16732;DHT22;8484;50.904;9.192;2023-07-29T01:42:17;17.90;99.90
16732;DHT22;8484;50.904;9.192;2023-07-29T01:44:44;17.90;99.90
16732;DHT22;8484;50.904;9.192;2023-07-29T01:47:12;17.90;99.90
16732;DHT22;8484;50.904;9.192;2023-07-29T01:49:45;17.90;99.90
16732;DHT22;8484;50.904;9.192;2023-07-29T01:52:12;17.90;99.90
16732;DHT22;8484;50.904;9.192;2023-07-29T01:54:39;17.80;99.90
16732;DHT22;8484;50.904;9.192;2023-07-29T01:57:07;17.70;99.90
16732;DHT22;8484;50.904;9.192;2023-07-29T01:59:34;17.70;99.90
16732;DHT22;8484;50.904;9.192;2023-07-29T02:02:00;17.60;99.90
16732;DHT22;8484;50.904;9.192;2023-07-29T02:04:28;17.50;99.90
16732;DHT22;8484;50.904;9.192;2023-07-29T02:06:55;17.60;99.90
16732;DHT22;8484;50.904;9.192;2023-07-29T02:09:22;17.60;99.90
16732;DHT22;8484;50.904;9.192;2023-07-29T02:11:49;17.60;99.90
16732;DHT22;8484;50.904;9.192;2023-07-29T02:14:17;17.60;99.90
16732;DHT22;8484;50.904;9.192;2023-07-29T02:16:44;17.70;99.90
16732;DHT22;8484;50.904;9.192;2023-07-29T02:19:10;17.70;99.90
16732;DHT22;8484;50.904;9.192;2023-07-29T02:21:38;17.80;99.90
16732;DHT22;8484;50.904;9.192;2023-07-29T02:24:04;17.70;99.90
16732;DHT22;8484;50.904;9.192;2023-07-29T02:26:31;17.80;99.90
16732;DHT22;8484;50.904;9.192;2023-07-29T02:28:58;17.80;99.90
16732;DHT22;8484;50.904;9.192;2023-07-29T02:31:27;17.80;99.90
16732;DHT22;8484;50.904;9.192;2023-07-29T02:33:54;17.80;99.90
16732;DHT22;8484;50.904;9.192;2023-07-29T02:36:22;17.80;99.90
16732;DHT22;8484;50.904;9.192;2023-07-29T02:38:49;17.80;99.90
16732;DHT22;8484;50.904;9.192;2023-07-29T02:41:16;17.70;99.90
16732;DHT22;8484;50.904;9.192;2023-07-29T02:43:47;17.70;99.90
16732;DHT22;8484;50.904;9.192;2023-07-29T02:46:14;17.80;99.90
16732;DHT22;8484;50.904;9.192;2023-07-29T02:48:43;17.80;99.90
16732;DHT22;8484;50.904;9.192;2023-07-29T02:51:10;17.80;99.90
16732;DHT22;8484;50.904;9.192;2023-07-29T02:53:37;17.80;99.90
16732;DHT22;8484;50.904;9.192;2023-07-29T02:56:04;17.80;99.90
16732;DHT22;8484;50.904;9.192;2023-07-29T02:58:35;17.80;99.90
16732;DHT22;8484;50.904;9.192;2023-07-29T03:01:03;17.70;99.90
16732;DHT22;8484;50.904;9.192;2023-07-29T03:03:31;17.70;99.90
16732;DHT22;8484;50.904;9.192;2023-07-29T03:06:01;17.80;99.90
16732;DHT22;8484;50.904;9.192;2023-07-29T03:08:29;17.90;99.90
16732;DHT22;8484;50.904;9.192;2023-07-29T03:10:56;17.90;99.90
16732;DHT22;8484;50.904;9.192;2023-07-29T03:13:25;17.90;99.90
16732;DHT22;8484;50.904;9.192;2023-07-29T03:15:52;17.90;99.90
16732;DHT22;8484;50.904;9.192;2023-07-29T03:18:19;17.90;99.90
16732;DHT22;8484;50.904;9.192;2023-07-29T03:20:46;17.90;99.90
16732;DHT22;8484;50.904;9.192;2023-07-29T03:23:16;18.00;99.90
16732;DHT22;8484;50.904;9.192;2023-07-29T03:25:43;17.90;99.90
16732;DHT22;8484;50.904;9.192;2023-07-29T03:28:10;17.90;99.90
16732;DHT22;8484;50.904;9.192;2023-07-29T03:30:37;18.00;99.90
16732;DHT22;8484;50.904;9.192;2023-07-29T03:33:04;18.00;99.90
16732;DHT22;8484;50.904;9.192;2023-07-29T03:35:32;18.00;99.90
16732;DHT22;8484;50.904;9.192;2023-07-29T03:37:59;18.00;99.90
16732;DHT22;8484;50.904;9.192;2023-07-29T03:40:27;18.00;99.90
16732;DHT22;8484;50.904;9.192;2023-07-29T03:42:54;18.00;99.90
16732;DHT22;8484;50.904;9.192;2023-07-29T03:45:21;17.90;99.90
16732;DHT22;8484;50.904;9.192;2023-07-29T03:47:48;18.00;99.90
16732;DHT22;8484;50.904;9.192;2023-07-29T03:50:15;17.90;99.90
16732;DHT22;8484;50.904;9.192;2023-07-29T03:52:42;18.00;99.90
16732;DHT22;8484;50.904;9.192;2023-07-29T03:55:09;18.00;99.90
16732;DHT22;8484;50.904;9.192;2023-07-29T03:57:37;18.10;99.90
16732;DHT22;8484;50.904;9.192;2023-07-29T04:00:05;18.10;99.90
16732;DHT22;8484;50.904;9.192;2023-07-29T04:02:33;18.00;99.90
16732;DHT22;8484;50.904;9.192;2023-07-29T04:05:03;18.10;99.90
16732;DHT22;8484;50.904;9.192;2023-07-29T04:07:30;18.10;99.90
16732;DHT22;8484;50.904;9.192;2023-07-29T04:09:57;18.10;99.90
16732;DHT22;8484;50.904;9.192;2023-07-29T04:12:24;18.10;99.90
16732;DHT22;8484;50.904;9.192;2023-07-29T04:14:52;18.10;99.90
16732;DHT22;8484;50.904;9.192;2023-07-29T04:17:19;18.10;99.90
16732;DHT22;8484;50.904;9.192;2023-07-29T04:19:46;18.20;99.90
16732;DHT22;8484;50.904;9.192;2023-07-29T04:22:15;18.20;99.90
16732;DHT22;8484;50.904;9.192;2023-07-29T04:24:42;18.20;99.90
16732;DHT22;8484;50.904;9.192;2023-07-29T04:27:09;18.10;99.90
16732;DHT22;8484;50.904;9.192;2023-07-29T04:29:36;18.10;99.90
16732;DHT22;8484;50.904;9.192;2023-07-29T04:32:05;18.10;99.90
16732;DHT22;8484;50.904;9.192;2023-07-29T04:34:32;18.10;99.90
16732;DHT22;8484;50.904;9.192;2023-07-29T04:36:59;18.20;99.90
16732;DHT22;8484;50.904;9.192;2023-07-29T04:39:26;18.20;99.90
16732;DHT22;8484;50.904;9.192;2023-07-29T04:41:54;18.10;99.90
16732;DHT22;8484;50.904;9.192;2023-07-29T04:44:22;18.20;99.90
16732;DHT22;8484;50.904;9.192;2023-07-29T04:46:49;18.20;99.90
16732;DHT22;8484;50.904;9.192;2023-07-29T04:49:18;18.20;99.90
16732;DHT22;8484;50.904;9.192;2023-07-29T04:51:45;18.20;99.90
16732;DHT22;8484;50.904;9.192;2023-07-29T04:54:13;18.20;99.90
16732;DHT22;8484;50.904;9.192;2023-07-29T04:56:40;18.20;99.90
16732;DHT22;8484;50.904;9.192;2023-07-29T04:59:07;18.30;99.90
16732;DHT22;8484;50.904;9.192;2023-07-29T05:01:34;18.20;99.90
16732;DHT22;8484;50.904;9.192;2023-07-29T05:04:02;18.30;99.90
16732;DHT22;8484;50.904;9.192;2023-07-29T05:06:30;18.30;99.90
16732;DHT22;8484;50.904;9.192;2023-07-29T05:08:58;18.30;99.90
16732;DHT22;8484;50.904;9.192;2023-07-29T05:11:25;18.30;99.90
16732;DHT22;8484;50.904;9.192;2023-07-29T05:13:52;18.30;99.90
16732;DHT22;8484;50.904;9.192;2023-07-29T05:16:19;18.30;99.90
16732;DHT22;8484;50.904;9.192;2023-07-29T05:18:45;18.30;99.90
16732;DHT22;8484;50.904;9.192;2023-07-29T05:21:12;18.40;99.90
16732;DHT22;8484;50.904;9.192;2023-07-29T05:23:41;18.40;99.90
16732;DHT22;8484;50.904;9.192;2023-07-29T05:26:08;18.50;99.90
16732;DHT22;8484;50.904;9.192;2023-07-29T05:28:35;18.50;99.90
16732;DHT22;8484;50.904;9.192;2023-07-29T05:31:02;18.50;99.90
16732;DHT22;8484;50.904;9.192;2023-07-29T05:33:28;18.60;99.90
16732;DHT22;8484;50.904;9.192;2023-07-29T05:35:55;18.70;99.90
16732;DHT22;8484;50.904;9.192;2023-07-29T05:38:22;18.70;99.90
16732;DHT22;8484;50.904;9.192;2023-07-29T05:40:51;18.70;99.90
16732;DHT22;8484;50.904;9.192;2023-07-29T05:43:18;18.80;99.90
16732;DHT22;8484;50.904;9.192;2023-07-29T05:45:45;18.90;99.90
16732;DHT22;8484;50.904;9.192;2023-07-29T05:48:11;19.00;99.90
16732;DHT22;8484;50.904;9.192;2023-07-29T05:50:38;19.00;99.90
16732;DHT22;8484;50.904;9.192;2023-07-29T05:53:05;19.00;99.90
16732;DHT22;8484;50.904;9.192;2023-07-29T05:55:35;19.00;99.90
16732;DHT22;8484;50.904;9.192;2023-07-29T05:58:03;19.00;99.90
16732;DHT22;8484;50.904;9.192;2023-07-29T06:00:30;18.90;99.90
16732;DHT22;8484;50.904;9.192;2023-07-29T06:02:57;18.90;99.90
16732;DHT22;8484;50.904;9.192;2023-07-29T06:05:24;18.90;99.90
16732;DHT22;8484;50.904;9.192;2023-07-29T06:07:51;18.90;99.90
16732;DHT22;8484;50.904;9.192;2023-07-29T06:10:17;18.90;99.90
16732;DHT22;8484;50.904;9.192;2023-07-29T06:12:44;18.90;99.90
16732;DHT22;8484;50.904;9.192;2023-07-29T06:15:13;18.80;99.90
16732;DHT22;8484;50.904;9.192;2023-07-29T06:17:40;18.90;99.90
16732;DHT22;8484;50.904;9.192;2023-07-29T06:20:08;18.90;99.90
16732;DHT22;8484;50.904;9.192;2023-07-29T06:22:34;18.90;99.90
16732;DHT22;8484;50.904;9.192;2023-07-29T06:25:01;19.00;99.90
16732;DHT22;8484;50.904;9.192;2023-07-29T06:27:28;19.00;99.90
16732;DHT22;8484;50.904;9.192;2023-07-29T06:29:55;19.00;99.90
16732;DHT22;8484;50.904;9.192;2023-07-29T06:32:23;19.10;99.90
16732;DHT22;8484;50.904;9.192;2023-07-29T06:34:51;19.10;99.90
16732;DHT22;8484;50.904;9.192;2023-07-29T06:37:20;19.10;99.90
16732;DHT22;8484;50.904;9.192;2023-07-29T06:39:47;19.20;99.90
16732;DHT22;8484;50.904;9.192;2023-07-29T06:42:14;19.20;99.90
16732;DHT22;8484;50.904;9.192;2023-07-29T06:44:41;19.30;99.90
16732;DHT22;8484;50.904;9.192;2023-07-29T06:47:08;19.20;99.90
16732;DHT22;8484;50.904;9.192;2023-07-29T06:49:36;19.30;99.90
16732;DHT22;8484;50.904;9.192;2023-07-29T06:52:03;19.20;99.90
16732;DHT22;8484;50.904;9.192;2023-07-29T06:54:30;19.30;99.90
16732;DHT22;8484;50.904;9.192;2023-07-29T06:56:57;19.30;99.90
16732;DHT22;8484;50.904;9.192;2023-07-29T06:59:24;19.40;99.90
16732;DHT22;8484;50.904;9.192;2023-07-29T07:01:52;19.50;99.90
16732;DHT22;8484;50.904;9.192;2023-07-29T07:04:19;19.60;99.90
16732;DHT22;8484;50.904;9.192;2023-07-29T07:06:47;19.50;99.90
16732;DHT22;8484;50.904;9.192;2023-07-29T07:09:14;19.30;99.90
16732;DHT22;8484;50.904;9.192;2023-07-29T07:11:41;19.40;99.90
16732;DHT22;8484;50.904;9.192;2023-07-29T07:14:08;19.30;99.90
16732;DHT22;8484;50.904;9.192;2023-07-29T07:16:35;19.40;99.90
16732;DHT22;8484;50.904;9.192;2023-07-29T07:19:04;19.30;99.90
16732;DHT22;8484;50.904;9.192;2023-07-29T07:21:31;19.30;99.90
16732;DHT22;8484;50.904;9.192;2023-07-29T07:24:00;19.30;99.90
16732;DHT22;8484;50.904;9.192;2023-07-29T07:26:27;19.30;99.90
16732;DHT22;8484;50.904;9.192;2023-07-29T07:28:54;19.30;99.90
16732;DHT22;8484;50.904;9.192;2023-07-29T07:31:21;19.30;99.90
16732;DHT22;8484;50.904;9.192;2023-07-29T07:33:48;19.30;99.90
16732;DHT22;8484;50.904;9.192;2023-07-29T07:36:15;19.20;99.90
16732;DHT22;8484;50.904;9.192;2023-07-29T07:38:42;19.30;99.90
16732;DHT22;8484;50.904;9.192;2023-07-29T07:41:10;19.30;99.90
16732;DHT22;8484;50.904;9.192;2023-07-29T07:43:37;19.10;99.90
16732;DHT22;8484;50.904;9.192;2023-07-29T07:46:05;19.10;99.90
16732;DHT22;8484;50.904;9.192;2023-07-29T07:48:34;19.10;99.90
16732;DHT22;8484;50.904;9.192;2023-07-29T07:51:10;19.00;99.90
16732;DHT22;8484;50.904;9.192;2023-07-29T07:53:37;19.00;99.90
16732;DHT22;8484;50.904;9.192;2023-07-29T07:56:05;18.90;99.90
16732;DHT22;8484;50.904;9.192;2023-07-29T07:58:34;18.90;99.90
16732;DHT22;8484;50.904;9.192;2023-07-29T08:01:02;18.80;99.90
16732;DHT22;8484;50.904;9.192;2023-07-29T08:03:29;18.90;99.90
16732;DHT22;8484;50.904;9.192;2023-07-29T08:05:56;18.90;99.90
16732;DHT22;8484;50.904;9.192;2023-07-29T08:08:24;18.90;99.90
16732;DHT22;8484;50.904;9.192;2023-07-29T08:10:52;19.00;99.90
16732;DHT22;8484;50.904;9.192;2023-07-29T08:13:21;18.90;99.90
16732;DHT22;8484;50.904;9.192;2023-07-29T08:15:50;19.00;99.90
16732;DHT22;8484;50.904;9.192;2023-07-29T08:18:17;19.00;99.90
16732;DHT22;8484;50.904;9.192;2023-07-29T08:20:52;19.20;99.90
16732;DHT22;8484;50.904;9.192;2023-07-29T08:23:20;19.20;99.90
16732;DHT22;8484;50.904;9.192;2023-07-29T08:25:53;19.10;99.90
16732;DHT22;8484;50.904;9.192;2023-07-29T08:28:21;19.30;99.90
16732;DHT22;8484;50.904;9.192;2023-07-29T08:30:50;19.30;99.90
16732;DHT22;8484;50.904;9.192;2023-07-29T08:33:17;19.30;99.90
16732;DHT22;8484;50.904;9.192;2023-07-29T08:35:44;19.50;99.90
16732;DHT22;8484;50.904;9.192;2023-07-29T08:38:11;19.90;99.90
16732;DHT22;8484;50.904;9.192;2023-07-29T08:40:42;20.30;99.90
16732;DHT22;8484;50.904;9.192;2023-07-29T08:43:12;20.60;99.90
16732;DHT22;8484;50.904;9.192;2023-07-29T08:45:41;20.70;99.90
16732;DHT22;8484;50.904;9.192;2023-07-29T08:48:10;20.90;99.90
16732;DHT22;8484;50.904;9.192;2023-07-29T08:50:39;20.90;99.90
16732;DHT22;8484;50.904;9.192;2023-07-29T08:53:08;21.00;99.90
16732;DHT22;8484;50.904;9.192;2023-07-29T08:55:35;21.00;99.90
16732;DHT22;8484;50.904;9.192;2023-07-29T08:58:05;21.30;99.90
16732;DHT22;8484;50.904;9.192;2023-07-29T09:00:32;20.90;99.90
16732;DHT22;8484;50.904;9.192;2023-07-29T09:02:59;21.00;99.90
16732;DHT22;8484;50.904;9.192;2023-07-29T09:05:34;21.50;99.90
16732;DHT22;8484;50.904;9.192;2023-07-29T09:08:03;22.40;99.90
16732;DHT22;8484;50.904;9.192;2023-07-29T09:10:35;22.80;99.90
16732;DHT22;8484;50.904;9.192;2023-07-29T09:13:02;23.30;99.90
16732;DHT22;8484;50.904;9.192;2023-07-29T09:15:30;23.00;99.90
16732;DHT22;8484;50.904;9.192;2023-07-29T09:17:58;22.50;99.90
16732;DHT22;8484;50.904;9.192;2023-07-29T09:20:25;23.10;99.90
16732;DHT22;8484;50.904;9.192;2023-07-29T09:22:57;23.20;99.90
16732;DHT22;8484;50.904;9.192;2023-07-29T09:25:25;23.20;99.90
16732;DHT22;8484;50.904;9.192;2023-07-29T09:27:52;23.20;99.90
16732;DHT22;8484;50.904;9.192;2023-07-29T09:30:20;22.80;99.90
16732;DHT22;8484;50.904;9.192;2023-07-29T09:32:47;23.50;99.90
16732;DHT22;8484;50.904;9.192;2023-07-29T09:35:19;23.70;99.90
16732;DHT22;8484;50.904;9.192;2023-07-29T09:37:46;23.80;99.90
16732;DHT22;8484;50.904;9.192;2023-07-29T09:40:15;23.50;99.90
16732;DHT22;8484;50.904;9.192;2023-07-29T09:42:48;23.90;99.90
16732;DHT22;8484;50.904;9.192;2023-07-29T09:45:20;24.00;99.90
16732;DHT22;8484;50.904;9.192;2023-07-29T09:47:47;23.90;99.90
16732;DHT22;8484;50.904;9.192;2023-07-29T09:50:15;23.90;99.90
16732;DHT22;8484;50.904;9.192;2023-07-29T09:52:42;24.90;99.90
16732;DHT22;8484;50.904;9.192;2023-07-29T09:55:11;25.00;99.90
16732;DHT22;8484;50.904;9.192;2023-07-29T09:57:40;25.20;99.90
16732;DHT22;8484;50.904;9.192;2023-07-29T10:00:07;24.70;99.90
16732;DHT22;8484;50.904;9.192;2023-07-29T10:02:38;23.60;99.90
16732;DHT22;8484;50.904;9.192;2023-07-29T10:05:06;23.40;99.90
16732;DHT22;8484;50.904;9.192;2023-07-29T10:07:35;22.80;99.90
16732;DHT22;8484;50.904;9.192;2023-07-29T10:10:04;22.80;99.90
16732;DHT22;8484;50.904;9.192;2023-07-29T10:12:32;22.60;99.90
16732;DHT22;8484;50.904;9.192;2023-07-29T10:15:03;23.30;99.90
16732;DHT22;8484;50.904;9.192;2023-07-29T10:17:30;24.00;99.90
16732;DHT22;8484;50.904;9.192;2023-07-29T10:19:57;24.50;99.90
16732;DHT22;8484;50.904;9.192;2023-07-29T10:22:27;24.50;99.90
16732;DHT22;8484;50.904;9.192;2023-07-29T10:24:59;23.40;99.90
16732;DHT22;8484;50.904;9.192;2023-07-29T10:27:30;22.80;99.90
16732;DHT22;8484;50.904;9.192;2023-07-29T10:30:04;22.40;99.90
16732;DHT22;8484;50.904;9.192;2023-07-29T10:32:32;22.50;99.90
16732;DHT22;8484;50.904;9.192;2023-07-29T10:34:59;22.40;99.90
16732;DHT22;8484;50.904;9.192;2023-07-29T10:37:26;22.40;99.90
16732;DHT22;8484;50.904;9.192;2023-07-29T10:39:54;22.50;99.90
16732;DHT22;8484;50.904;9.192;2023-07-29T10:42:22;23.30;99.90
16732;DHT22;8484;50.904;9.192;2023-07-29T10:44:49;23.80;99.90
16732;DHT22;8484;50.904;9.192;2023-07-29T10:47:20;24.00;99.90
16732;DHT22;8484;50.904;9.192;2023-07-29T10:49:51;24.40;99.90
16732;DHT22;8484;50.904;9.192;2023-07-29T10:52:40;24.40;99.90
16732;DHT22;8484;50.904;9.192;2023-07-29T10:55:29;24.40;99.90
16732;DHT22;8484;50.904;9.192;2023-07-29T10:58:07;24.50;99.90
16732;DHT22;8484;50.904;9.192;2023-07-29T11:00:35;24.30;99.90
16732;DHT22;8484;50.904;9.192;2023-07-29T11:03:05;23.80;99.90
16732;DHT22;8484;50.904;9.192;2023-07-29T11:05:50;23.50;99.90
16732;DHT22;8484;50.904;9.192;2023-07-29T11:08:22;23.70;99.90
16732;DHT22;8484;50.904;9.192;2023-07-29T11:10:59;23.40;99.90
16732;DHT22;8484;50.904;9.192;2023-07-29T11:13:27;23.50;99.90
16732;DHT22;8484;50.904;9.192;2023-07-29T11:15:54;23.20;99.90
16732;DHT22;8484;50.904;9.192;2023-07-29T11:18:27;23.30;99.90
16732;DHT22;8484;50.904;9.192;2023-07-29T11:20:54;23.00;99.90
16732;DHT22;8484;50.904;9.192;2023-07-29T11:25:55;22.50;99.90
16732;DHT22;8484;50.904;9.192;2023-07-29T11:28:22;22.30;99.90
16732;DHT22;8484;50.904;9.192;2023-07-29T11:30:50;22.30;99.90
16732;DHT22;8484;50.904;9.192;2023-07-29T11:33:18;22.10;99.90
16732;DHT22;8484;50.904;9.192;2023-07-29T11:35:46;22.10;99.90
16732;DHT22;8484;50.904;9.192;2023-07-29T11:38:15;21.70;99.90
16732;DHT22;8484;50.904;9.192;2023-07-29T11:40:43;21.70;99.90
16732;DHT22;8484;50.904;9.192;2023-07-29T11:43:17;21.70;99.90
16732;DHT22;8484;50.904;9.192;2023-07-29T11:45:45;21.70;99.90
16732;DHT22;8484;50.904;9.192;2023-07-29T11:48:12;21.30;99.90
16732;DHT22;8484;50.904;9.192;2023-07-29T11:50:38;21.00;99.90
16732;DHT22;8484;50.904;9.192;2023-07-29T11:53:07;21.00;99.90
16732;DHT22;8484;50.904;9.192;2023-07-29T11:55:34;20.90;99.90
16732;DHT22;8484;50.904;9.192;2023-07-29T11:58:01;20.70;99.90
16732;DHT22;8484;50.904;9.192;2023-07-29T12:00:29;20.30;99.90
16732;DHT22;8484;50.904;9.192;2023-07-29T12:02:56;20.00;99.90
16732;DHT22;8484;50.904;9.192;2023-07-29T12:05:24;19.90;99.90
16732;DHT22;8484;50.904;9.192;2023-07-29T12:07:51;19.70;99.90
16732;DHT22;8484;50.904;9.192;2023-07-29T12:10:20;19.80;99.90
16732;DHT22;8484;50.904;9.192;2023-07-29T12:12:49;19.80;99.90
16732;DHT22;8484;50.904;9.192;2023-07-29T12:15:27;19.80;99.90
16732;DHT22;8484;50.904;9.192;2023-07-29T12:17:55;20.10;99.90
16732;DHT22;8484;50.904;9.192;2023-07-29T12:20:26;20.30;99.90
16732;DHT22;8484;50.904;9.192;2023-07-29T12:22:54;19.90;99.90
16732;DHT22;8484;50.904;9.192;2023-07-29T12:25:22;19.70;99.90
16732;DHT22;8484;50.904;9.192;2023-07-29T12:27:49;19.60;99.90
16732;DHT22;8484;50.904;9.192;2023-07-29T12:30:19;19.50;99.90
16732;DHT22;8484;50.904;9.192;2023-07-29T12:32:46;19.60;99.90
16732;DHT22;8484;50.904;9.192;2023-07-29T12:35:14;19.40;99.90
16732;DHT22;8484;50.904;9.192;2023-07-29T12:37:41;19.30;99.90
16732;DHT22;8484;50.904;9.192;2023-07-29T12:40:22;19.50;99.90
16732;DHT22;8484;50.904;9.192;2023-07-29T12:42:49;19.60;99.90
16732;DHT22;8484;50.904;9.192;2023-07-29T12:45:16;19.70;99.90
16732;DHT22;8484;50.904;9.192;2023-07-29T12:47:44;19.80;99.90
16732;DHT22;8484;50.904;9.192;2023-07-29T12:50:11;19.70;99.90
16732;DHT22;8484;50.904;9.192;2023-07-29T12:52:38;19.80;99.90
16732;DHT22;8484;50.904;9.192;2023-07-29T12:55:06;20.00;99.90
16732;DHT22;8484;50.904;9.192;2023-07-29T12:57:35;20.50;99.90
16732;DHT22;8484;50.904;9.192;2023-07-29T13:00:03;20.80;99.90
16732;DHT22;8484;50.904;9.192;2023-07-29T13:02:31;21.10;99.90
16732;DHT22;8484;50.904;9.192;2023-07-29T13:04:58;21.10;99.90
16732;DHT22;8484;50.904;9.192;2023-07-29T13:07:25;21.30;99.90
16732;DHT22;8484;50.904;9.192;2023-07-29T13:09:51;21.90;99.90
16732;DHT22;8484;50.904;9.192;2023-07-29T13:12:18;22.50;99.90
16732;DHT22;8484;50.904;9.192;2023-07-29T13:14:47;23.10;99.90
16732;DHT22;8484;50.904;9.192;2023-07-29T13:17:14;22.80;99.90
16732;DHT22;8484;50.904;9.192;2023-07-29T13:19:41;22.60;99.90
16732;DHT22;8484;50.904;9.192;2023-07-29T13:22:08;23.40;99.90
16732;DHT22;8484;50.904;9.192;2023-07-29T13:24:35;23.30;99.90
16732;DHT22;8484;50.904;9.192;2023-07-29T13:27:01;23.50;99.90
16732;DHT22;8484;50.904;9.192;2023-07-29T13:29:28;24.20;99.90
16732;DHT22;8484;50.904;9.192;2023-07-29T13:31:56;24.50;99.90
16732;DHT22;8484;50.904;9.192;2023-07-29T13:34:23;24.30;99.90
16732;DHT22;8484;50.904;9.192;2023-07-29T13:36:50;24.70;99.90
16732;DHT22;8484;50.904;9.192;2023-07-29T13:39:17;24.90;99.90
16732;DHT22;8484;50.904;9.192;2023-07-29T13:41:44;24.90;99.90
16732;DHT22;8484;50.904;9.192;2023-07-29T13:44:11;24.70;99.90
16732;DHT22;8484;50.904;9.192;2023-07-29T13:46:38;25.20;99.90
16732;DHT22;8484;50.904;9.192;2023-07-29T13:49:06;25.80;99.90
16732;DHT22;8484;50.904;9.192;2023-07-29T13:51:33;25.50;99.90
16732;DHT22;8484;50.904;9.192;2023-07-29T13:54:00;25.10;99.90
16732;DHT22;8484;50.904;9.192;2023-07-29T13:56:27;25.20;99.90
16732;DHT22;8484;50.904;9.192;2023-07-29T13:58:54;24.20;99.90
16732;DHT22;8484;50.904;9.192;2023-07-29T14:01:21;24.10;99.90
16732;DHT22;8484;50.904;9.192;2023-07-29T14:03:49;24.40;99.90
16732;DHT22;8484;50.904;9.192;2023-07-29T14:06:17;24.30;99.90
16732;DHT22;8484;50.904;9.192;2023-07-29T14:08:44;24.10;99.90
16732;DHT22;8484;50.904;9.192;2023-07-29T14:11:11;24.70;99.90
16732;DHT22;8484;50.904;9.192;2023-07-29T14:13:38;25.50;99.90
16732;DHT22;8484;50.904;9.192;2023-07-29T14:16:05;25.40;99.90
16732;DHT22;8484;50.904;9.192;2023-07-29T14:18:32;24.90;99.90
16732;DHT22;8484;50.904;9.192;2023-07-29T14:20:59;25.70;99.90
16732;DHT22;8484;50.904;9.192;2023-07-29T14:23:27;25.20;99.90
16732;DHT22;8484;50.904;9.192;2023-07-29T14:25:55;25.10;99.90
16732;DHT22;8484;50.904;9.192;2023-07-29T14:28:22;24.40;99.90
16732;DHT22;8484;50.904;9.192;2023-07-29T14:30:52;24.50;99.90
16732;DHT22;8484;50.904;9.192;2023-07-29T14:33:19;24.20;99.90
16732;DHT22;8484;50.904;9.192;2023-07-29T14:35:46;23.90;99.90
16732;DHT22;8484;50.904;9.192;2023-07-29T14:38:13;24.40;99.90
16732;DHT22;8484;50.904;9.192;2023-07-29T14:40:41;23.90;99.90
16732;DHT22;8484;50.904;9.192;2023-07-29T14:43:08;24.10;99.90
16732;DHT22;8484;50.904;9.192;2023-07-29T14:45:35;24.90;99.90
16732;DHT22;8484;50.904;9.192;2023-07-29T14:48:03;24.90;99.90
16732;DHT22;8484;50.904;9.192;2023-07-29T14:50:30;25.30;99.90
16732;DHT22;8484;50.904;9.192;2023-07-29T14:52:57;25.50;99.90
16732;DHT22;8484;50.904;9.192;2023-07-29T14:55:24;24.80;99.90
16732;DHT22;8484;50.904;9.192;2023-07-29T14:57:52;24.70;99.90
16732;DHT22;8484;50.904;9.192;2023-07-29T15:00:19;24.80;99.90
16732;DHT22;8484;50.904;9.192;2023-07-29T15:02:46;24.80;99.90
16732;DHT22;8484;50.904;9.192;2023-07-29T15:05:21;24.90;99.90
16732;DHT22;8484;50.904;9.192;2023-07-29T15:07:53;25.50;99.90
16732;DHT22;8484;50.904;9.192;2023-07-29T15:10:20;25.20;99.90
16732;DHT22;8484;50.904;9.192;2023-07-29T15:12:47;25.30;99.90
16732;DHT22;8484;50.904;9.192;2023-07-29T15:15:16;25.30;99.90
16732;DHT22;8484;50.904;9.192;2023-07-29T15:17:42;25.10;99.90
16732;DHT22;8484;50.904;9.192;2023-07-29T15:20:10;25.00;99.90
16732;DHT22;8484;50.904;9.192;2023-07-29T15:22:37;24.90;99.90
16732;DHT22;8484;50.904;9.192;2023-07-29T15:25:05;25.40;99.90
16732;DHT22;8484;50.904;9.192;2023-07-29T15:27:33;25.60;99.90
16732;DHT22;8484;50.904;9.192;2023-07-29T15:30:00;25.50;99.90
16732;DHT22;8484;50.904;9.192;2023-07-29T15:32:29;25.60;99.90
16732;DHT22;8484;50.904;9.192;2023-07-29T15:34:55;25.80;99.90
16732;DHT22;8484;50.904;9.192;2023-07-29T15:37:25;25.10;99.90
16732;DHT22;8484;50.904;9.192;2023-07-29T15:39:52;24.60;99.90
16732;DHT22;8484;50.904;9.192;2023-07-29T15:42:19;24.40;99.90
16732;DHT22;8484;50.904;9.192;2023-07-29T15:44:46;24.30;99.90
16732;DHT22;8484;50.904;9.192;2023-07-29T15:47:13;24.20;99.90
16732;DHT22;8484;50.904;9.192;2023-07-29T15:49:43;24.10;99.90
16732;DHT22;8484;50.904;9.192;2023-07-29T15:52:10;24.10;99.90